sensor_id;sensor_type;location;lat;lon;timestamp;P1;durP1;ratioP1;P2;durP2;ratioP2
73841;SDS011;62184;52.006;5.924;2023-02-08T00:00:47;19.65;;;12.85;;
73841;SDS011;62184;52.006;5.924;2023-02-08T00:03:14;20.80;;;13.23;;
73841;SDS011;62184;52.006;5.924;2023-02-08T00:05:40;19.30;;;11.98;;
73841;SDS011;62184;52.006;5.924;2023-02-08T00:08:07;19.77;;;12.98;;
73841;SDS011;62184;52.006;5.924;2023-02-08T00:10:36;20.95;;;13.63;;
73841;SDS011;62184;52.006;5.924;2023-02-08T00:13:03;19.27;;;12.40;;
73841;SDS011;62184;52.006;5.924;2023-02-08T00:15:29;20.30;;;13.32;;
73841;SDS011;62184;52.006;5.924;2023-02-08T00:17:55;20.90;;;13.55;;
73841;SDS011;62184;52.006;5.924;2023-02-08T00:20:22;19.55;;;13.05;;
73841;SDS011;62184;52.006;5.924;2023-02-08T00:22:48;20.02;;;13.02;;
73841;SDS011;62184;52.006;5.924;2023-02-08T00:25:15;20.55;;;13.90;;
73841;SDS011;62184;52.006;5.924;2023-02-08T00:27:44;19.40;;;13.27;;
73841;SDS011;62184;52.006;5.924;2023-02-08T00:30:11;21.37;;;13.50;;
73841;SDS011;62184;52.006;5.924;2023-02-08T00:32:37;21.73;;;14.60;;
73841;SDS011;62184;52.006;5.924;2023-02-08T00:35:04;21.38;;;13.48;;
73841;SDS011;62184;52.006;5.924;2023-02-08T00:37:31;21.90;;;14.60;;
73841;SDS011;62184;52.006;5.924;2023-02-08T00:39:58;23.08;;;14.45;;
73841;SDS011;62184;52.006;5.924;2023-02-08T00:42:24;23.65;;;15.32;;
73841;SDS011;62184;52.006;5.924;2023-02-08T00:44:53;22.08;;;14.15;;
73841;SDS011;62184;52.006;5.924;2023-02-08T00:47:20;21.70;;;14.03;;
73841;SDS011;62184;52.006;5.924;2023-02-08T00:49:46;21.00;;;14.30;;
73841;SDS011;62184;52.006;5.924;2023-02-08T00:52:13;21.93;;;13.83;;
73841;SDS011;62184;52.006;5.924;2023-02-08T00:54:39;21.80;;;14.77;;
73841;SDS011;62184;52.006;5.924;2023-02-08T00:57:06;22.70;;;15.00;;
73841;SDS011;62184;52.006;5.924;2023-02-08T00:59:33;24.30;;;15.60;;
73841;SDS011;62184;52.006;5.924;2023-02-08T01:02:02;22.13;;;14.38;;
73841;SDS011;62184;52.006;5.924;2023-02-08T01:04:29;22.50;;;14.82;;
73841;SDS011;62184;52.006;5.924;2023-02-08T01:06:55;23.83;;;14.65;;
73841;SDS011;62184;52.006;5.924;2023-02-08T01:09:22;23.05;;;14.90;;
73841;SDS011;62184;52.006;5.924;2023-02-08T01:11:49;22.67;;;14.30;;
73841;SDS011;62184;52.006;5.924;2023-02-08T01:14:15;22.75;;;14.50;;
73841;SDS011;62184;52.006;5.924;2023-02-08T01:16:42;24.20;;;15.02;;
73841;SDS011;62184;52.006;5.924;2023-02-08T01:19:11;20.90;;;13.77;;
73841;SDS011;62184;52.006;5.924;2023-02-08T01:21:38;21.77;;;14.52;;
73841;SDS011;62184;52.006;5.924;2023-02-08T01:24:07;23.10;;;15.07;;
73841;SDS011;62184;52.006;5.924;2023-02-08T01:26:34;23.35;;;15.73;;
73841;SDS011;62184;52.006;5.924;2023-02-08T01:29:02;22.27;;;14.53;;
73841;SDS011;62184;52.006;5.924;2023-02-08T01:31:30;22.40;;;14.88;;
73841;SDS011;62184;52.006;5.924;2023-02-08T01:34:00;23.47;;;15.43;;
73841;SDS011;62184;52.006;5.924;2023-02-08T01:36:31;24.57;;;15.63;;
73841;SDS011;62184;52.006;5.924;2023-02-08T01:38:58;21.63;;;14.63;;
73841;SDS011;62184;52.006;5.924;2023-02-08T01:41:27;22.63;;;15.13;;
73841;SDS011;62184;52.006;5.924;2023-02-08T01:43:57;21.55;;;14.85;;
73841;SDS011;62184;52.006;5.924;2023-02-08T01:46:34;22.17;;;14.73;;
73841;SDS011;62184;52.006;5.924;2023-02-08T01:49:07;22.60;;;14.70;;
73841;SDS011;62184;52.006;5.924;2023-02-08T01:51:43;25.90;;;16.27;;
73841;SDS011;62184;52.006;5.924;2023-02-08T01:54:17;23.80;;;15.33;;
73841;SDS011;62184;52.006;5.924;2023-02-08T01:56:48;24.23;;;15.57;;
73841;SDS011;62184;52.006;5.924;2023-02-08T01:59:16;24.30;;;15.50;;
73841;SDS011;62184;52.006;5.924;2023-02-08T02:01:48;23.48;;;14.95;;
73841;SDS011;62184;52.006;5.924;2023-02-08T02:04:18;24.23;;;15.10;;
73841;SDS011;62184;52.006;5.924;2023-02-08T02:06:49;23.92;;;15.15;;
73841;SDS011;62184;52.006;5.924;2023-02-08T02:09:24;23.95;;;15.07;;
73841;SDS011;62184;52.006;5.924;2023-02-08T02:11:58;23.98;;;15.05;;
73841;SDS011;62184;52.006;5.924;2023-02-08T02:14:25;23.25;;;15.00;;
73841;SDS011;62184;52.006;5.924;2023-02-08T02:16:53;23.95;;;15.40;;
73841;SDS011;62184;52.006;5.924;2023-02-08T02:19:20;23.47;;;15.23;;
73841;SDS011;62184;52.006;5.924;2023-02-08T02:22:04;22.35;;;14.80;;
73841;SDS011;62184;52.006;5.924;2023-02-08T02:25:01;23.92;;;15.77;;
73841;SDS011;62184;52.006;5.924;2023-02-08T02:28:01;25.17;;;15.20;;
73841;SDS011;62184;52.006;5.924;2023-02-08T02:34:14;24.52;;;14.38;;
73841;SDS011;62184;52.006;5.924;2023-02-08T02:36:51;22.48;;;14.15;;
73841;SDS011;62184;52.006;5.924;2023-02-08T02:39:36;23.33;;;14.65;;
73841;SDS011;62184;52.006;5.924;2023-02-08T02:42:12;23.05;;;15.02;;
73841;SDS011;62184;52.006;5.924;2023-02-08T02:44:50;22.02;;;14.68;;
73841;SDS011;62184;52.006;5.924;2023-02-08T02:47:38;23.33;;;14.70;;
73841;SDS011;62184;52.006;5.924;2023-02-08T02:50:18;23.58;;;14.73;;
73841;SDS011;62184;52.006;5.924;2023-02-08T02:52:58;22.27;;;14.98;;
73841;SDS011;62184;52.006;5.924;2023-02-08T02:55:32;23.90;;;15.17;;
73841;SDS011;62184;52.006;5.924;2023-02-08T02:58:08;23.35;;;15.10;;
73841;SDS011;62184;52.006;5.924;2023-02-08T03:00:38;22.48;;;14.35;;
73841;SDS011;62184;52.006;5.924;2023-02-08T03:03:08;24.58;;;15.27;;
73841;SDS011;62184;52.006;5.924;2023-02-08T03:05:46;23.40;;;14.87;;
73841;SDS011;62184;52.006;5.924;2023-02-08T03:08:22;23.83;;;15.37;;
73841;SDS011;62184;52.006;5.924;2023-02-08T03:11:21;23.98;;;14.93;;
73841;SDS011;62184;52.006;5.924;2023-02-08T03:14:01;23.70;;;15.45;;
73841;SDS011;62184;52.006;5.924;2023-02-08T03:16:56;23.77;;;14.73;;
73841;SDS011;62184;52.006;5.924;2023-02-08T03:19:44;23.35;;;14.85;;
73841;SDS011;62184;52.006;5.924;2023-02-08T03:22:27;21.87;;;14.00;;
73841;SDS011;62184;52.006;5.924;2023-02-08T03:25:08;22.63;;;14.93;;
73841;SDS011;62184;52.006;5.924;2023-02-08T03:27:44;24.40;;;14.40;;
73841;SDS011;62184;52.006;5.924;2023-02-08T03:30:27;22.85;;;15.23;;
73841;SDS011;62184;52.006;5.924;2023-02-08T03:33:02;23.33;;;14.98;;
73841;SDS011;62184;52.006;5.924;2023-02-08T03:35:38;21.67;;;14.65;;
73841;SDS011;62184;52.006;5.924;2023-02-08T03:38:15;24.35;;;14.38;;
73841;SDS011;62184;52.006;5.924;2023-02-08T03:40:50;21.50;;;14.32;;
73841;SDS011;62184;52.006;5.924;2023-02-08T03:43:20;23.73;;;14.45;;
73841;SDS011;62184;52.006;5.924;2023-02-08T03:45:54;24.02;;;14.55;;
73841;SDS011;62184;52.006;5.924;2023-02-08T03:48:30;23.55;;;14.32;;
73841;SDS011;62184;52.006;5.924;2023-02-08T03:51:05;26.08;;;15.20;;
73841;SDS011;62184;52.006;5.924;2023-02-08T03:53:34;24.02;;;15.23;;
73841;SDS011;62184;52.006;5.924;2023-02-08T03:56:15;23.50;;;14.27;;
73841;SDS011;62184;52.006;5.924;2023-02-08T03:58:48;22.27;;;14.50;;
73841;SDS011;62184;52.006;5.924;2023-02-08T04:01:26;23.87;;;14.30;;
73841;SDS011;62184;52.006;5.924;2023-02-08T04:03:59;23.58;;;14.20;;
73841;SDS011;62184;52.006;5.924;2023-02-08T04:06:29;22.75;;;14.52;;
73841;SDS011;62184;52.006;5.924;2023-02-08T04:08:55;22.33;;;14.25;;
73841;SDS011;62184;52.006;5.924;2023-02-08T04:11:22;23.38;;;14.40;;
73841;SDS011;62184;52.006;5.924;2023-02-08T04:13:48;23.48;;;14.55;;
73841;SDS011;62184;52.006;5.924;2023-02-08T04:16:15;23.10;;;14.50;;
73841;SDS011;62184;52.006;5.924;2023-02-08T04:18:41;25.92;;;14.52;;
73841;SDS011;62184;52.006;5.924;2023-02-08T04:21:08;22.45;;;14.48;;
73841;SDS011;62184;52.006;5.924;2023-02-08T04:23:37;22.83;;;14.32;;
73841;SDS011;62184;52.006;5.924;2023-02-08T04:26:03;22.90;;;14.63;;
73841;SDS011;62184;52.006;5.924;2023-02-08T04:28:30;22.40;;;14.83;;
73841;SDS011;62184;52.006;5.924;2023-02-08T04:30:56;24.73;;;14.67;;
73841;SDS011;62184;52.006;5.924;2023-02-08T04:33:23;23.20;;;14.75;;
73841;SDS011;62184;52.006;5.924;2023-02-08T04:35:49;22.83;;;15.03;;
73841;SDS011;62184;52.006;5.924;2023-02-08T04:38:16;24.30;;;15.05;;
73841;SDS011;62184;52.006;5.924;2023-02-08T04:40:45;22.52;;;14.02;;
73841;SDS011;62184;52.006;5.924;2023-02-08T04:43:12;22.27;;;14.17;;
73841;SDS011;62184;52.006;5.924;2023-02-08T04:45:38;21.07;;;13.43;;
73841;SDS011;62184;52.006;5.924;2023-02-08T04:48:05;23.13;;;14.43;;
73841;SDS011;62184;52.006;5.924;2023-02-08T04:50:31;22.10;;;13.73;;
73841;SDS011;62184;52.006;5.924;2023-02-08T04:52:58;22.00;;;13.38;;
73841;SDS011;62184;52.006;5.924;2023-02-08T04:55:25;22.23;;;13.82;;
73841;SDS011;62184;52.006;5.924;2023-02-08T04:57:54;20.73;;;13.23;;
73841;SDS011;62184;52.006;5.924;2023-02-08T05:00:20;21.33;;;13.27;;
73841;SDS011;62184;52.006;5.924;2023-02-08T05:02:47;20.80;;;13.03;;
73841;SDS011;62184;52.006;5.924;2023-02-08T05:05:18;21.10;;;13.23;;
73841;SDS011;62184;52.006;5.924;2023-02-08T05:07:44;22.40;;;13.45;;
73841;SDS011;62184;52.006;5.924;2023-02-08T05:10:10;20.92;;;13.07;;
73841;SDS011;62184;52.006;5.924;2023-02-08T05:12:37;21.73;;;13.57;;
73841;SDS011;62184;52.006;5.924;2023-02-08T05:15:06;22.67;;;13.63;;
73841;SDS011;62184;52.006;5.924;2023-02-08T05:17:34;21.80;;;14.50;;
73841;SDS011;62184;52.006;5.924;2023-02-08T05:20:00;21.95;;;14.10;;
73841;SDS011;62184;52.006;5.924;2023-02-08T05:22:28;24.42;;;14.50;;
73841;SDS011;62184;52.006;5.924;2023-02-08T05:24:56;22.08;;;14.13;;
73841;SDS011;62184;52.006;5.924;2023-02-08T05:27:22;21.27;;;13.50;;
73841;SDS011;62184;52.006;5.924;2023-02-08T05:29:48;22.02;;;14.13;;
73841;SDS011;62184;52.006;5.924;2023-02-08T05:32:18;22.10;;;14.10;;
73841;SDS011;62184;52.006;5.924;2023-02-08T05:34:44;23.92;;;14.63;;
73841;SDS011;62184;52.006;5.924;2023-02-08T05:37:11;23.23;;;14.10;;
73841;SDS011;62184;52.006;5.924;2023-02-08T05:39:38;22.80;;;14.35;;
73841;SDS011;62184;52.006;5.924;2023-02-08T05:42:04;24.13;;;14.20;;
73841;SDS011;62184;52.006;5.924;2023-02-08T05:44:31;23.73;;;14.37;;
73841;SDS011;62184;52.006;5.924;2023-02-08T05:46:58;23.90;;;14.97;;
73841;SDS011;62184;52.006;5.924;2023-02-08T05:49:27;24.80;;;15.37;;
73841;SDS011;62184;52.006;5.924;2023-02-08T05:51:53;26.80;;;15.55;;
73841;SDS011;62184;52.006;5.924;2023-02-08T05:54:19;26.33;;;15.30;;
73841;SDS011;62184;52.006;5.924;2023-02-08T05:56:46;25.67;;;15.77;;
73841;SDS011;62184;52.006;5.924;2023-02-08T05:59:12;25.58;;;15.63;;
73841;SDS011;62184;52.006;5.924;2023-02-08T06:01:39;25.83;;;16.23;;
73841;SDS011;62184;52.006;5.924;2023-02-08T06:04:05;27.10;;;16.73;;
73841;SDS011;62184;52.006;5.924;2023-02-08T06:06:34;26.30;;;16.92;;
73841;SDS011;62184;52.006;5.924;2023-02-08T06:09:01;26.65;;;16.73;;
73841;SDS011;62184;52.006;5.924;2023-02-08T06:11:27;29.40;;;16.77;;
73841;SDS011;62184;52.006;5.924;2023-02-08T06:13:54;27.77;;;16.83;;
73841;SDS011;62184;52.006;5.924;2023-02-08T06:16:20;27.15;;;16.25;;
73841;SDS011;62184;52.006;5.924;2023-02-08T06:18:46;28.15;;;16.88;;
73841;SDS011;62184;52.006;5.924;2023-02-08T06:21:13;26.15;;;16.48;;
73841;SDS011;62184;52.006;5.924;2023-02-08T06:23:42;28.10;;;16.90;;
73841;SDS011;62184;52.006;5.924;2023-02-08T06:26:08;27.48;;;16.95;;
73841;SDS011;62184;52.006;5.924;2023-02-08T06:28:35;28.55;;;17.55;;
73841;SDS011;62184;52.006;5.924;2023-02-08T06:31:02;26.58;;;16.80;;
73841;SDS011;62184;52.006;5.924;2023-02-08T06:33:28;25.77;;;16.65;;
73841;SDS011;62184;52.006;5.924;2023-02-08T06:35:55;26.92;;;17.30;;
73841;SDS011;62184;52.006;5.924;2023-02-08T06:38:21;26.42;;;17.05;;
73841;SDS011;62184;52.006;5.924;2023-02-08T06:40:50;25.20;;;16.40;;
73841;SDS011;62184;52.006;5.924;2023-02-08T06:43:17;27.10;;;17.27;;
73841;SDS011;62184;52.006;5.924;2023-02-08T06:45:44;27.10;;;17.17;;
73841;SDS011;62184;52.006;5.924;2023-02-08T06:48:11;24.05;;;16.30;;
73841;SDS011;62184;52.006;5.924;2023-02-08T06:50:38;26.53;;;17.47;;
73841;SDS011;62184;52.006;5.924;2023-02-08T06:53:05;26.13;;;17.20;;
73841;SDS011;62184;52.006;5.924;2023-02-08T06:55:31;25.60;;;16.10;;
73841;SDS011;62184;52.006;5.924;2023-02-08T06:58:00;25.95;;;16.35;;
73841;SDS011;62184;52.006;5.924;2023-02-08T07:00:27;24.75;;;16.23;;
73841;SDS011;62184;52.006;5.924;2023-02-08T07:02:54;25.27;;;15.70;;
73841;SDS011;62184;52.006;5.924;2023-02-08T07:05:20;24.40;;;15.80;;
73841;SDS011;62184;52.006;5.924;2023-02-08T07:07:47;26.02;;;15.90;;
73841;SDS011;62184;52.006;5.924;2023-02-08T07:10:13;24.65;;;16.02;;
73841;SDS011;62184;52.006;5.924;2023-02-08T07:12:40;24.70;;;15.52;;
73841;SDS011;62184;52.006;5.924;2023-02-08T07:15:09;25.25;;;16.00;;
73841;SDS011;62184;52.006;5.924;2023-02-08T07:17:35;25.02;;;16.00;;
73841;SDS011;62184;52.006;5.924;2023-02-08T07:20:02;25.50;;;16.20;;
73841;SDS011;62184;52.006;5.924;2023-02-08T07:22:28;25.48;;;16.10;;
73841;SDS011;62184;52.006;5.924;2023-02-08T07:24:55;25.10;;;16.35;;
73841;SDS011;62184;52.006;5.924;2023-02-08T07:27:21;24.75;;;16.15;;
73841;SDS011;62184;52.006;5.924;2023-02-08T07:29:48;24.48;;;16.13;;
73841;SDS011;62184;52.006;5.924;2023-02-08T07:32:17;24.05;;;15.20;;
73841;SDS011;62184;52.006;5.924;2023-02-08T07:34:43;24.70;;;15.60;;
73841;SDS011;62184;52.006;5.924;2023-02-08T07:37:10;24.42;;;15.52;;
73841;SDS011;62184;52.006;5.924;2023-02-08T07:39:36;23.92;;;15.13;;
73841;SDS011;62184;52.006;5.924;2023-02-08T07:42:03;23.00;;;14.27;;
73841;SDS011;62184;52.006;5.924;2023-02-08T07:44:30;22.75;;;15.05;;
73841;SDS011;62184;52.006;5.924;2023-02-08T07:46:56;23.52;;;14.50;;
73841;SDS011;62184;52.006;5.924;2023-02-08T07:49:25;22.80;;;14.27;;
73841;SDS011;62184;52.006;5.924;2023-02-08T07:51:52;24.45;;;14.77;;
73841;SDS011;62184;52.006;5.924;2023-02-08T07:54:18;21.10;;;13.60;;
73841;SDS011;62184;52.006;5.924;2023-02-08T07:56:45;22.43;;;13.90;;
73841;SDS011;62184;52.006;5.924;2023-02-08T07:59:11;22.67;;;14.70;;
73841;SDS011;62184;52.006;5.924;2023-02-08T08:01:38;22.50;;;14.67;;
73841;SDS011;62184;52.006;5.924;2023-02-08T08:04:04;22.88;;;14.35;;
73841;SDS011;62184;52.006;5.924;2023-02-08T08:06:33;22.90;;;14.60;;
73841;SDS011;62184;52.006;5.924;2023-02-08T08:09:00;21.25;;;13.80;;
73841;SDS011;62184;52.006;5.924;2023-02-08T08:11:27;21.38;;;13.13;;
73841;SDS011;62184;52.006;5.924;2023-02-08T08:13:53;21.80;;;13.60;;
73841;SDS011;62184;52.006;5.924;2023-02-08T08:16:20;23.17;;;14.33;;
73841;SDS011;62184;52.006;5.924;2023-02-08T08:18:46;22.50;;;14.70;;
73841;SDS011;62184;52.006;5.924;2023-02-08T08:21:13;21.98;;;13.88;;
73841;SDS011;62184;52.006;5.924;2023-02-08T08:23:42;21.50;;;13.35;;
73841;SDS011;62184;52.006;5.924;2023-02-08T08:26:10;21.80;;;13.35;;
73841;SDS011;62184;52.006;5.924;2023-02-08T08:28:40;21.48;;;13.88;;
73841;SDS011;62184;52.006;5.924;2023-02-08T08:31:10;21.25;;;14.00;;
73841;SDS011;62184;52.006;5.924;2023-02-08T08:33:38;20.37;;;13.43;;
73841;SDS011;62184;52.006;5.924;2023-02-08T08:36:06;20.15;;;12.98;;
73841;SDS011;62184;52.006;5.924;2023-02-08T08:38:33;21.90;;;13.47;;
73841;SDS011;62184;52.006;5.924;2023-02-08T08:41:02;21.75;;;14.10;;
73841;SDS011;62184;52.006;5.924;2023-02-08T08:43:33;19.35;;;13.30;;
73841;SDS011;62184;52.006;5.924;2023-02-08T08:45:59;21.88;;;13.48;;
73841;SDS011;62184;52.006;5.924;2023-02-08T08:48:25;20.77;;;13.70;;
73841;SDS011;62184;52.006;5.924;2023-02-08T08:50:52;20.70;;;13.55;;
73841;SDS011;62184;52.006;5.924;2023-02-08T08:53:19;21.73;;;13.60;;
73841;SDS011;62184;52.006;5.924;2023-02-08T08:55:45;20.93;;;13.93;;
73841;SDS011;62184;52.006;5.924;2023-02-08T08:58:14;21.60;;;13.82;;
73841;SDS011;62184;52.006;5.924;2023-02-08T09:00:41;20.15;;;14.45;;
73841;SDS011;62184;52.006;5.924;2023-02-08T09:03:07;20.40;;;13.55;;
73841;SDS011;62184;52.006;5.924;2023-02-08T09:05:34;21.45;;;13.73;;
73841;SDS011;62184;52.006;5.924;2023-02-08T09:08:02;19.20;;;13.10;;
73841;SDS011;62184;52.006;5.924;2023-02-08T09:10:29;19.92;;;12.73;;
73841;SDS011;62184;52.006;5.924;2023-02-08T09:12:56;18.88;;;12.80;;
73841;SDS011;62184;52.006;5.924;2023-02-08T09:15:25;20.88;;;12.82;;
73841;SDS011;62184;52.006;5.924;2023-02-08T09:17:51;20.63;;;13.30;;
73841;SDS011;62184;52.006;5.924;2023-02-08T09:20:18;20.83;;;13.33;;
73841;SDS011;62184;52.006;5.924;2023-02-08T09:22:44;18.47;;;12.70;;
73841;SDS011;62184;52.006;5.924;2023-02-08T09:25:11;19.93;;;13.00;;
73841;SDS011;62184;52.006;5.924;2023-02-08T09:27:37;19.83;;;13.27;;
73841;SDS011;62184;52.006;5.924;2023-02-08T09:30:04;18.80;;;12.67;;
73841;SDS011;62184;52.006;5.924;2023-02-08T09:32:34;19.63;;;12.82;;
73841;SDS011;62184;52.006;5.924;2023-02-08T09:35:01;19.88;;;13.57;;
73841;SDS011;62184;52.006;5.924;2023-02-08T09:37:28;19.30;;;13.03;;
73841;SDS011;62184;52.006;5.924;2023-02-08T09:39:55;20.27;;;13.25;;
73841;SDS011;62184;52.006;5.924;2023-02-08T09:42:25;22.60;;;13.30;;
73841;SDS011;62184;52.006;5.924;2023-02-08T09:45:05;19.05;;;13.10;;
73841;SDS011;62184;52.006;5.924;2023-02-08T09:47:59;20.73;;;12.95;;
73841;SDS011;62184;52.006;5.924;2023-02-08T09:50:38;19.60;;;13.48;;
73841;SDS011;62184;52.006;5.924;2023-02-08T09:53:14;19.73;;;12.90;;
73841;SDS011;62184;52.006;5.924;2023-02-08T09:55:47;19.48;;;13.23;;
73841;SDS011;62184;52.006;5.924;2023-02-08T09:58:22;21.73;;;13.30;;
73841;SDS011;62184;52.006;5.924;2023-02-08T10:00:54;19.75;;;12.50;;
73841;SDS011;62184;52.006;5.924;2023-02-08T10:06:08;18.77;;;12.18;;
73841;SDS011;62184;52.006;5.924;2023-02-08T10:08:38;18.23;;;11.90;;
73841;SDS011;62184;52.006;5.924;2023-02-08T10:11:09;17.55;;;12.20;;
73841;SDS011;62184;52.006;5.924;2023-02-08T10:13:59;20.58;;;12.80;;
73841;SDS011;62184;52.006;5.924;2023-02-08T10:16:53;18.45;;;11.77;;
73841;SDS011;62184;52.006;5.924;2023-02-08T10:19:40;19.40;;;13.00;;
73841;SDS011;62184;52.006;5.924;2023-02-08T10:22:28;17.90;;;12.52;;
73841;SDS011;62184;52.006;5.924;2023-02-08T10:25:19;17.38;;;11.68;;
73841;SDS011;62184;52.006;5.924;2023-02-08T10:28:10;17.20;;;11.50;;
73841;SDS011;62184;52.006;5.924;2023-02-08T10:30:56;18.03;;;11.87;;
73841;SDS011;62184;52.006;5.924;2023-02-08T10:33:41;16.70;;;10.95;;
73841;SDS011;62184;52.006;5.924;2023-02-08T10:36:24;16.70;;;11.13;;
73841;SDS011;62184;52.006;5.924;2023-02-08T10:38:56;19.20;;;11.65;;
73841;SDS011;62184;52.006;5.924;2023-02-08T10:41:28;16.50;;;11.45;;
73841;SDS011;62184;52.006;5.924;2023-02-08T10:44:01;17.20;;;11.23;;
73841;SDS011;62184;52.006;5.924;2023-02-08T10:46:46;17.65;;;11.73;;
73841;SDS011;62184;52.006;5.924;2023-02-08T10:49:21;17.37;;;11.07;;
73841;SDS011;62184;52.006;5.924;2023-02-08T10:52:05;16.40;;;10.90;;
73841;SDS011;62184;52.006;5.924;2023-02-08T10:54:32;15.63;;;10.52;;
73841;SDS011;62184;52.006;5.924;2023-02-08T10:56:59;17.15;;;10.77;;
73841;SDS011;62184;52.006;5.924;2023-02-08T10:59:29;16.23;;;10.80;;
73841;SDS011;62184;52.006;5.924;2023-02-08T11:02:01;16.60;;;10.83;;
73841;SDS011;62184;52.006;5.924;2023-02-08T11:04:55;16.88;;;10.80;;
73841;SDS011;62184;52.006;5.924;2023-02-08T11:07:26;15.27;;;10.43;;
73841;SDS011;62184;52.006;5.924;2023-02-08T11:09:53;15.15;;;10.00;;
73841;SDS011;62184;52.006;5.924;2023-02-08T11:12:39;16.83;;;10.87;;
73841;SDS011;62184;52.006;5.924;2023-02-08T11:15:19;15.70;;;10.45;;
73841;SDS011;62184;52.006;5.924;2023-02-08T11:17:52;15.67;;;10.20;;
73841;SDS011;62184;52.006;5.924;2023-02-08T11:20:26;15.57;;;10.30;;
73841;SDS011;62184;52.006;5.924;2023-02-08T11:23:01;15.63;;;9.98;;
73841;SDS011;62184;52.006;5.924;2023-02-08T11:25:33;15.27;;;10.27;;
73841;SDS011;62184;52.006;5.924;2023-02-08T11:28:04;14.35;;;9.48;;
73841;SDS011;62184;52.006;5.924;2023-02-08T11:30:58;14.73;;;10.00;;
73841;SDS011;62184;52.006;5.924;2023-02-08T11:33:27;13.80;;;9.45;;
73841;SDS011;62184;52.006;5.924;2023-02-08T11:35:56;13.80;;;9.85;;
73841;SDS011;62184;52.006;5.924;2023-02-08T11:38:30;15.07;;;9.20;;
73841;SDS011;62184;52.006;5.924;2023-02-08T11:41:01;14.20;;;9.90;;
73841;SDS011;62184;52.006;5.924;2023-02-08T11:43:38;14.10;;;9.67;;
73841;SDS011;62184;52.006;5.924;2023-02-08T11:46:05;13.48;;;9.50;;
73841;SDS011;62184;52.006;5.924;2023-02-08T11:48:34;13.18;;;8.90;;
73841;SDS011;62184;52.006;5.924;2023-02-08T11:51:10;13.85;;;9.32;;
73841;SDS011;62184;52.006;5.924;2023-02-08T11:53:52;13.93;;;8.98;;
73841;SDS011;62184;52.006;5.924;2023-02-08T11:56:19;12.70;;;8.48;;
73841;SDS011;62184;52.006;5.924;2023-02-08T11:58:54;14.52;;;8.57;;
73841;SDS011;62184;52.006;5.924;2023-02-08T12:01:25;13.18;;;8.52;;
73841;SDS011;62184;52.006;5.924;2023-02-08T12:03:53;13.37;;;8.23;;
73841;SDS011;62184;52.006;5.924;2023-02-08T12:09:55;12.02;;;8.00;;
73841;SDS011;62184;52.006;5.924;2023-02-08T12:12:47;10.53;;;7.50;;
73841;SDS011;62184;52.006;5.924;2023-02-08T12:15:33;11.45;;;7.43;;
73841;SDS011;62184;52.006;5.924;2023-02-08T12:18:17;11.85;;;8.10;;
73841;SDS011;62184;52.006;5.924;2023-02-08T12:21:04;14.13;;;8.13;;
73841;SDS011;62184;52.006;5.924;2023-02-08T12:23:40;12.30;;;8.15;;
73841;SDS011;62184;52.006;5.924;2023-02-08T12:26:21;13.48;;;8.32;;
73841;SDS011;62184;52.006;5.924;2023-02-08T12:29:14;14.32;;;8.77;;
73841;SDS011;62184;52.006;5.924;2023-02-08T12:32:01;11.95;;;7.40;;
73841;SDS011;62184;52.006;5.924;2023-02-08T12:34:51;11.95;;;7.78;;
73841;SDS011;62184;52.006;5.924;2023-02-08T12:37:40;11.77;;;7.70;;
73841;SDS011;62184;52.006;5.924;2023-02-08T12:40:20;13.23;;;7.18;;
73841;SDS011;62184;52.006;5.924;2023-02-08T12:43:11;11.97;;;7.60;;
73841;SDS011;62184;52.006;5.924;2023-02-08T12:46:00;11.90;;;7.77;;
73841;SDS011;62184;52.006;5.924;2023-02-08T12:48:47;11.27;;;6.90;;
73841;SDS011;62184;52.006;5.924;2023-02-08T12:51:35;11.98;;;7.40;;
73841;SDS011;62184;52.006;5.924;2023-02-08T12:54:14;11.07;;;7.13;;
73841;SDS011;62184;52.006;5.924;2023-02-08T12:56:53;10.82;;;7.03;;
73841;SDS011;62184;52.006;5.924;2023-02-08T12:59:27;11.18;;;6.65;;
73841;SDS011;62184;52.006;5.924;2023-02-08T13:02:01;11.05;;;7.15;;
73841;SDS011;62184;52.006;5.924;2023-02-08T13:04:42;10.23;;;7.00;;
73841;SDS011;62184;52.006;5.924;2023-02-08T13:07:15;10.55;;;7.43;;
73841;SDS011;62184;52.006;5.924;2023-02-08T13:09:49;10.68;;;7.50;;
73841;SDS011;62184;52.006;5.924;2023-02-08T13:12:25;11.10;;;7.18;;
73841;SDS011;62184;52.006;5.924;2023-02-08T13:15:01;11.07;;;7.63;;
73841;SDS011;62184;52.006;5.924;2023-02-08T13:17:40;11.55;;;7.38;;
73841;SDS011;62184;52.006;5.924;2023-02-08T13:20:22;12.00;;;7.63;;
73841;SDS011;62184;52.006;5.924;2023-02-08T13:23:05;13.45;;;7.72;;
73841;SDS011;62184;52.006;5.924;2023-02-08T13:25:45;11.70;;;7.25;;
73841;SDS011;62184;52.006;5.924;2023-02-08T13:28:16;13.43;;;7.57;;
73841;SDS011;62184;52.006;5.924;2023-02-08T13:30:54;10.48;;;6.82;;
73841;SDS011;62184;52.006;5.924;2023-02-08T13:33:29;10.63;;;6.70;;
73841;SDS011;62184;52.006;5.924;2023-02-08T13:36:05;10.82;;;6.93;;
73841;SDS011;62184;52.006;5.924;2023-02-08T13:38:48;10.63;;;6.77;;
73841;SDS011;62184;52.006;5.924;2023-02-08T13:41:17;10.32;;;6.80;;
73841;SDS011;62184;52.006;5.924;2023-02-08T13:43:48;10.15;;;6.30;;
73841;SDS011;62184;52.006;5.924;2023-02-08T13:46:21;10.68;;;6.63;;
73841;SDS011;62184;52.006;5.924;2023-02-08T13:48:52;9.98;;;6.47;;
73841;SDS011;62184;52.006;5.924;2023-02-08T13:54:23;11.98;;;6.82;;
73841;SDS011;62184;52.006;5.924;2023-02-08T13:56:50;10.30;;;6.97;;
73841;SDS011;62184;52.006;5.924;2023-02-08T13:59:24;11.25;;;6.80;;
73841;SDS011;62184;52.006;5.924;2023-02-08T14:04:49;11.18;;;6.90;;
73841;SDS011;62184;52.006;5.924;2023-02-08T14:07:22;11.63;;;6.53;;
73841;SDS011;62184;52.006;5.924;2023-02-08T14:10:12;11.05;;;6.85;;
73841;SDS011;62184;52.006;5.924;2023-02-08T14:12:53;10.93;;;6.67;;
73841;SDS011;62184;52.006;5.924;2023-02-08T14:15:29;11.05;;;6.50;;
73841;SDS011;62184;52.006;5.924;2023-02-08T14:18:01;10.60;;;6.55;;
73841;SDS011;62184;52.006;5.924;2023-02-08T14:20:31;10.77;;;6.40;;
73841;SDS011;62184;52.006;5.924;2023-02-08T14:23:03;10.43;;;6.80;;
73841;SDS011;62184;52.006;5.924;2023-02-08T14:25:45;10.25;;;7.20;;
73841;SDS011;62184;52.006;5.924;2023-02-08T14:28:22;10.48;;;6.68;;
73841;SDS011;62184;52.006;5.924;2023-02-08T14:30:57;11.63;;;7.00;;
73841;SDS011;62184;52.006;5.924;2023-02-08T14:33:32;11.37;;;6.87;;
73841;SDS011;62184;52.006;5.924;2023-02-08T14:36:02;11.60;;;6.82;;
73841;SDS011;62184;52.006;5.924;2023-02-08T14:41:45;10.10;;;6.47;;
73841;SDS011;62184;52.006;5.924;2023-02-08T14:50:21;10.43;;;6.47;;
73841;SDS011;62184;52.006;5.924;2023-02-08T14:53:01;10.73;;;7.00;;
73841;SDS011;62184;52.006;5.924;2023-02-08T14:55:40;10.20;;;6.40;;
73841;SDS011;62184;52.006;5.924;2023-02-08T14:58:19;10.05;;;6.15;;
73841;SDS011;62184;52.006;5.924;2023-02-08T15:00:53;11.20;;;6.77;;
73841;SDS011;62184;52.006;5.924;2023-02-08T15:03:26;10.60;;;6.60;;
73841;SDS011;62184;52.006;5.924;2023-02-08T15:09:12;10.33;;;6.67;;
73841;SDS011;62184;52.006;5.924;2023-02-08T15:11:46;11.45;;;6.85;;
73841;SDS011;62184;52.006;5.924;2023-02-08T15:14:22;9.95;;;6.32;;
73841;SDS011;62184;52.006;5.924;2023-02-08T15:16:49;10.40;;;6.10;;
73841;SDS011;62184;52.006;5.924;2023-02-08T15:19:19;9.73;;;6.10;;